Avalon — PBSF — position and weather

sailwx.info

Track history (hours):
 
Tides and Currents Weather Stations Pressure Air Temp Water Temp Dewpoint Dewpoint Depression Visibility Wind Speed Wind Dir Waves Ship Positions

Avalon

Last reported at 2016-Dec-10 04:33 UTC. Time now 2016-Dec-10 05:07 UTC.
Position N 53°54' E 009°09'.

Length 89 m; draft 5.4 m.

Type: Cargo ship. MMSI: 246578000.

Date/timePositionNaut miles runAvg speedWind from/ knotsBaromVisibWave heightAir tempDewpointWater temp
2016-Dec-10 04:33N 53°54' E 009°09'2 1.5
2016-Dec-10 03:34N 53°53' E 009°06'1 1.3
2016-Dec-10 02:33N 53°53' E 009°04'7 7.0
2016-Dec-10 01:33N 53°50' E 008°53'6 6.4
2016-Dec-10 00:33N 53°53' E 008°43'7 6.6
2016-Dec-09 23:33N 53°58' E 008°35'9 8.8
2016-Dec-09 22:33N 53°59' E 008°21'10 9.6
2016-Dec-09 21:33N 53°58' E 008°04'9910.7
2016-Dec-09 12:20N 53°33' E 005°23'3810.1
2016-Dec-09 08:32N 53°09' E 004°33'10 9.8
2016-Dec-09 07:33N 52°60' E 004°31'9 9.2
2016-Dec-09 06:33N 52°50' E 004°31'9 8.9
2016-Dec-09 05:33N 52°42' E 004°31'9 8.9
2016-Dec-09 04:33N 52°33' E 004°31'6 5.6
2016-Dec-09 03:34N 52°28' E 004°36'6 6.2
2016-Dec-09 02:34N 52°26' E 004°46'4 4.5
2016-Dec-09 01:33N 52°24' E 004°52'0 0.0
2016-Dec-09 00:34N 52°24' E 004°52'0 0.2
2016-Dec-08 23:32N 52°24' E 004°52'0 0.0
2016-Dec-08 22:32N 52°24' E 004°52'0 0.0
2016-Dec-08 21:32N 52°24' E 004°52'0 0.0
2016-Dec-08 20:32N 52°24' E 004°52'0 0.0
2016-Dec-08 19:32N 52°24' E 004°52'0 0.0
2016-Dec-08 18:32N 52°24' E 004°52'0 0.0
2016-Dec-08 17:32N 52°24' E 004°52'0 0.0
2016-Dec-08 16:32N 52°24' E 004°52'0 0.0
2016-Dec-08 15:32N 52°24' E 004°52'0 0.0
2016-Dec-08 14:32N 52°24' E 004°52'0 0.0
2016-Dec-08 13:32N 52°24' E 004°52'0 0.0
2016-Dec-08 12:32N 52°24' E 004°52'0 0.0
2016-Dec-08 11:32N 52°24' E 004°52'0 0.0
2016-Dec-08 10:32N 52°24' E 004°52'0 0.0
2016-Dec-08 09:32N 52°24' E 004°52'0 0.0
2016-Dec-08 08:32N 52°24' E 004°52'0 0.2
2016-Dec-08 07:33N 52°24' E 004°52'0 0.0
2016-Dec-08 06:33N 52°24' E 004°52'0 0.0
2016-Dec-08 05:33N 52°24' E 004°52'0 0.0
2016-Dec-08 04:33N 52°24' E 004°52'0 0.0
2016-Dec-08 03:33N 52°24' E 004°52'0 0.0
2016-Dec-08 02:33N 52°24' E 004°52'0 0.0
2016-Dec-08 01:33N 52°24' E 004°52'0 0.0
2016-Dec-08 00:33N 52°24' E 004°52'0 0.0
2016-Dec-07 23:33N 52°24' E 004°52'0 0.0
2016-Dec-07 22:33N 52°24' E 004°52'0 0.0
2016-Dec-07 21:33N 52°24' E 004°52'0 0.0
2016-Dec-07 20:33N 52°24' E 004°52'0 0.0
2016-Dec-07 19:33N 52°24' E 004°52'0 0.0
2016-Dec-07 18:33N 52°24' E 004°52'0 0.0
2016-Dec-07 17:33N 52°24' E 004°52'0 0.0
2016-Dec-07 16:33N 52°24' E 004°52'0 0.0
2016-Dec-07 15:33N 52°24' E 004°52'0 0.2
2016-Dec-07 14:31N 52°24' E 004°52'0 0.0
2016-Dec-07 13:31N 52°24' E 004°52'0 0.0
2016-Dec-07 12:31N 52°24' E 004°52'0 0.0
2016-Dec-07 11:31N 52°24' E 004°52'0 0.0
2016-Dec-07 10:31N 52°24' E 004°52'0 0.0
2016-Dec-07 09:31N 52°24' E 004°52'0 0.0
2016-Dec-07 08:33N 52°24' E 004°52'5 4.6
2016-Dec-07 07:34N 52°26' E 004°45'6 6.4
2016-Dec-07 06:33N 52°28' E 004°35'9 8.8
2016-Dec-07 05:33N 52°28' E 004°21'1111.1
2016-Dec-07 04:33N 52°28' E 004°03'10 9.6
2016-Dec-07 03:33N 52°21' E 003°52'1110.8
2016-Dec-07 02:33N 52°10' E 003°54'1111.2
2016-Dec-07 01:34N 51°60' E 004°02'1313.0
2016-Dec-07 00:33N 51°54' E 004°21'3 3.1
2016-Dec-06 23:31N 51°53' E 004°26'0 0.0
2016-Dec-06 22:31N 51°53' E 004°26'0 0.0
2016-Dec-06 21:32N 51°53' E 004°26'0 0.0
2016-Dec-06 20:31N 51°53' E 004°26'0 0.0
2016-Dec-06 18:32N 51°53' E 004°26'0 0.0
2016-Dec-06 17:33N 51°53' E 004°26'0 0.5
2016-Dec-06 16:33N 51°54' E 004°26'1 1.2
2016-Dec-06 15:33N 51°54' E 004°28'0 0.0
2016-Dec-06 14:33N 51°54' E 004°28'0 0.0
2016-Dec-06 13:33N 51°54' E 004°28'0 0.0
2016-Dec-06 12:33N 51°54' E 004°28'0 0.0
2016-Dec-06 11:33N 51°54' E 004°28'0 0.0
2016-Dec-06 10:33N 51°54' E 004°28'0 0.0
2016-Dec-06 09:33N 51°54' E 004°28'0 0.0
2016-Dec-06 08:33N 51°54' E 004°28'0 0.0
2016-Dec-06 07:33N 51°54' E 004°28'0 0.0
2016-Dec-06 06:33N 51°54' E 004°28'0 0.0
2016-Dec-06 05:33N 51°54' E 004°28'0 0.0
2016-Dec-06 04:33N 51°54' E 004°28'0 0.0
2016-Dec-06 03:33N 51°54' E 004°28'0 0.0
2016-Dec-06 02:33N 51°54' E 004°28'0 0.0
2016-Dec-06 01:33N 51°54' E 004°28'0 0.0
2016-Dec-06 00:33N 51°54' E 004°28'0 0.0
2016-Dec-05 23:33N 51°54' E 004°28'0 0.0
2016-Dec-05 22:33N 51°54' E 004°28'0 0.0
2016-Dec-05 21:33N 51°54' E 004°28'0 0.0
2016-Dec-05 20:33N 51°54' E 004°28'0 0.0
2016-Dec-05 19:33N 51°54' E 004°28'0 0.0
2016-Dec-05 18:33N 51°54' E 004°28'0 0.0
2016-Dec-05 17:33N 51°54' E 004°28'0 0.0
2016-Dec-05 16:33N 51°54' E 004°28'0 0.0
2016-Dec-05 15:34N 51°54' E 004°28'0 0.0
2016-Dec-05 14:33N 51°54' E 004°28'0 0.0
2016-Dec-05 13:33N 51°54' E 004°28'0 0.0
2016-Dec-05 12:33N 51°54' E 004°28'0 0.0
2016-Dec-05 11:33N 51°54' E 004°28'0 0.0
2016-Dec-05 10:33N 51°54' E 004°28'0 0.0
2016-Dec-05 09:33N 51°54' E 004°28'0 0.0
2016-Dec-05 08:33N 51°54' E 004°28'3 2.8
2016-Dec-05 07:33N 51°54' E 004°24'9 9.2
2016-Dec-05 06:33N 51°57' E 004°10'9 9.4
2016-Dec-05 05:33N 52°01' E 003°55'6 6.4
2016-Dec-05 04:33N 52°05' E 003°48'4 4.3
2016-Dec-05 03:33N 52°10' E 003°46'6 5.9
2016-Dec-05 02:33N 52°15' E 003°47'7 6.7
2016-Dec-05 01:33N 52°22' E 003°48'10 7.0
2016-Dec-05 00:08N 52°32' E 003°51'4 7.1
2016-Dec-04 23:33N 52°36' E 003°53'7 7.2
2016-Dec-04 22:33N 52°43' E 003°55'7 6.8
2016-Dec-04 21:33N 52°50' E 003°58'6 6.0
2016-Dec-04 20:33N 52°55' E 003°60'6 6.0
2016-Dec-04 19:33N 52°60' E 004°06'6 6.2
2016-Dec-04 18:33N 53°04' E 004°14'6 6.4
2016-Dec-04 17:33N 53°08' E 004°22'7 6.9
2016-Dec-04 16:33N 53°14' E 004°28'30 7.5
2016-Dec-04 12:32N 53°34' E 005°05'8 8.1
2016-Dec-04 11:33N 53°37' E 005°18'19 7.9
2016-Dec-04 09:08N 53°43' E 005°49'84 9.6
2016-Dec-04 00:23N 54°01' E 008°08'7 8.4
2016-Dec-03 23:33N 54°00' E 008°19'8 7.7
2016-Dec-03 22:33N 53°58' E 008°32'10 9.9
2016-Dec-03 21:33N 53°52' E 008°45'1212.1
2016-Dec-03 20:33N 53°53' E 009°05'3 3.2
2016-Dec-03 19:33N 53°54' E 009°10'7 7.3
2016-Dec-03 18:33N 53°60' E 009°17'9 8.4
2016-Dec-03 17:30N 54°08' E 009°21'8 8.4
2016-Dec-03 16:33N 54°12' E 009°33'8 7.6
2016-Dec-03 15:33N 54°18' E 009°41'6 6.4
2016-Dec-03 14:33N 54°22' E 009°50'8 7.6
2016-Dec-03 13:33N 54°22' E 010°03'3 3.5
2016-Dec-03 12:33N 54°22' E 010°09'1 1.1
2016-Dec-03 11:33N 54°22' E 010°10'5 4.8
2016-Dec-03 10:33N 54°27' E 010°14'10 9.8
2016-Dec-03 09:33N 54°32' E 010°27'1010.1
2016-Dec-03 08:33N 54°35' E 010°44'10 9.9
2016-Dec-03 07:33N 54°36' E 011°01'9 9.3
2016-Dec-03 06:33N 54°34' E 011°17'1010.2
2016-Dec-03 05:32N 54°30' E 011°34'1110.2
2016-Dec-03 04:25N 54°27' E 011°53'11 9.6
2016-Dec-03 03:17N 54°29' E 012°11'83 9.4
2016-Dec-02 18:25N 54°39' E 014°33'8 9.4
2016-Dec-02 17:33N 54°40' E 014°47'14 9.2
2016-Dec-02 16:04N 54°42' E 015°10'113 8.4
2016-Dec-02 02:32N 54°57' E 018°25'9 9.4
2016-Dec-02 01:33N 54°55' E 018°41'10 9.9
2016-Dec-02 00:33N 54°52' E 018°58'1010.0
2016-Dec-01 23:33N 54°49' E 019°14'  
Track history (hours):
 
Tides and Currents Weather Stations Pressure Air Temp Water Temp Dewpoint Dewpoint Depression Visibility Wind Speed Wind Dir Waves Ship Positions

Avalon

Last reported at 2016-Dec-10 04:33 UTC. Time now 2016-Dec-10 05:07 UTC.
Position N 53°54' E 009°09'.

Length 89 m; draft 5.4 m.

Type: Cargo ship. MMSI: 246578000.

Date/timePositionNaut miles runAvg speedWind from/ knotsBaromVisibWave heightAir tempDewpointWater temp
2016-Dec-10 04:33N 53°54' E 009°09'2 1.5
2016-Dec-10 03:34N 53°53' E 009°06'1 1.3
2016-Dec-10 02:33N 53°53' E 009°04'7 7.0
2016-Dec-10 01:33N 53°50' E 008°53'6 6.4
2016-Dec-10 00:33N 53°53' E 008°43'7 6.6
2016-Dec-09 23:33N 53°58' E 008°35'9 8.8
2016-Dec-09 22:33N 53°59' E 008°21'10 9.6
2016-Dec-09 21:33N 53°58' E 008°04'9910.7
2016-Dec-09 12:20N 53°33' E 005°23'3810.1
2016-Dec-09 08:32N 53°09' E 004°33'10 9.8
2016-Dec-09 07:33N 52°60' E 004°31'9 9.2
2016-Dec-09 06:33N 52°50' E 004°31'9 8.9
2016-Dec-09 05:33N 52°42' E 004°31'9 8.9
2016-Dec-09 04:33N 52°33' E 004°31'6 5.6
2016-Dec-09 03:34N 52°28' E 004°36'6 6.2
2016-Dec-09 02:34N 52°26' E 004°46'4 4.5
2016-Dec-09 01:33N 52°24' E 004°52'0 0.0
2016-Dec-09 00:34N 52°24' E 004°52'0 0.2
2016-Dec-08 23:32N 52°24' E 004°52'0 0.0
2016-Dec-08 22:32N 52°24' E 004°52'0 0.0
2016-Dec-08 21:32N 52°24' E 004°52'0 0.0
2016-Dec-08 20:32N 52°24' E 004°52'0 0.0
2016-Dec-08 19:32N 52°24' E 004°52'0 0.0
2016-Dec-08 18:32N 52°24' E 004°52'0 0.0
2016-Dec-08 17:32N 52°24' E 004°52'0 0.0
2016-Dec-08 16:32N 52°24' E 004°52'0 0.0
2016-Dec-08 15:32N 52°24' E 004°52'0 0.0
2016-Dec-08 14:32N 52°24' E 004°52'0 0.0
2016-Dec-08 13:32N 52°24' E 004°52'0 0.0
2016-Dec-08 12:32N 52°24' E 004°52'0 0.0
2016-Dec-08 11:32N 52°24' E 004°52'0 0.0
2016-Dec-08 10:32N 52°24' E 004°52'0 0.0
2016-Dec-08 09:32N 52°24' E 004°52'0 0.0
2016-Dec-08 08:32N 52°24' E 004°52'0 0.2
2016-Dec-08 07:33N 52°24' E 004°52'0 0.0
2016-Dec-08 06:33N 52°24' E 004°52'0 0.0
2016-Dec-08 05:33N 52°24' E 004°52'0 0.0
2016-Dec-08 04:33N 52°24' E 004°52'0 0.0
2016-Dec-08 03:33N 52°24' E 004°52'0 0.0
2016-Dec-08 02:33N 52°24' E 004°52'0 0.0
2016-Dec-08 01:33N 52°24' E 004°52'0 0.0
2016-Dec-08 00:33N 52°24' E 004°52'0 0.0
2016-Dec-07 23:33N 52°24' E 004°52'0 0.0
2016-Dec-07 22:33N 52°24' E 004°52'0 0.0
2016-Dec-07 21:33N 52°24' E 004°52'0 0.0
2016-Dec-07 20:33N 52°24' E 004°52'0 0.0
2016-Dec-07 19:33N 52°24' E 004°52'0 0.0
2016-Dec-07 18:33N 52°24' E 004°52'0 0.0
2016-Dec-07 17:33N 52°24' E 004°52'0 0.0
2016-Dec-07 16:33N 52°24' E 004°52'0 0.0
2016-Dec-07 15:33N 52°24' E 004°52'0 0.2
2016-Dec-07 14:31N 52°24' E 004°52'0 0.0
2016-Dec-07 13:31N 52°24' E 004°52'0 0.0
2016-Dec-07 12:31N 52°24' E 004°52'0 0.0
2016-Dec-07 11:31N 52°24' E 004°52'0 0.0
2016-Dec-07 10:31N 52°24' E 004°52'0 0.0
2016-Dec-07 09:31N 52°24' E 004°52'0 0.0
2016-Dec-07 08:33N 52°24' E 004°52'5 4.6
2016-Dec-07 07:34N 52°26' E 004°45'6 6.4
2016-Dec-07 06:33N 52°28' E 004°35'9 8.8
2016-Dec-07 05:33N 52°28' E 004°21'1111.1
2016-Dec-07 04:33N 52°28' E 004°03'10 9.6
2016-Dec-07 03:33N 52°21' E 003°52'1110.8
2016-Dec-07 02:33N 52°10' E 003°54'1111.2
2016-Dec-07 01:34N 51°60' E 004°02'1313.0
2016-Dec-07 00:33N 51°54' E 004°21'3 3.1
2016-Dec-06 23:31N 51°53' E 004°26'0 0.0
2016-Dec-06 22:31N 51°53' E 004°26'0 0.0
2016-Dec-06 21:32N 51°53' E 004°26'0 0.0
2016-Dec-06 20:31N 51°53' E 004°26'0 0.0
2016-Dec-06 18:32N 51°53' E 004°26'0 0.0
2016-Dec-06 17:33N 51°53' E 004°26'0 0.5
2016-Dec-06 16:33N 51°54' E 004°26'1 1.2
2016-Dec-06 15:33N 51°54' E 004°28'0 0.0
2016-Dec-06 14:33N 51°54' E 004°28'0 0.0
2016-Dec-06 13:33N 51°54' E 004°28'0 0.0
2016-Dec-06 12:33N 51°54' E 004°28'0 0.0
2016-Dec-06 11:33N 51°54' E 004°28'0 0.0
2016-Dec-06 10:33N 51°54' E 004°28'0 0.0
2016-Dec-06 09:33N 51°54' E 004°28'0 0.0
2016-Dec-06 08:33N 51°54' E 004°28'0 0.0
2016-Dec-06 07:33N 51°54' E 004°28'0 0.0
2016-Dec-06 06:33N 51°54' E 004°28'0 0.0
2016-Dec-06 05:33N 51°54' E 004°28'0 0.0
2016-Dec-06 04:33N 51°54' E 004°28'0 0.0
2016-Dec-06 03:33N 51°54' E 004°28'0 0.0
2016-Dec-06 02:33N 51°54' E 004°28'0 0.0
2016-Dec-06 01:33N 51°54' E 004°28'0 0.0
2016-Dec-06 00:33N 51°54' E 004°28'0 0.0
2016-Dec-05 23:33N 51°54' E 004°28'0 0.0
2016-Dec-05 22:33N 51°54' E 004°28'0 0.0
2016-Dec-05 21:33N 51°54' E 004°28'0 0.0
2016-Dec-05 20:33N 51°54' E 004°28'0 0.0
2016-Dec-05 19:33N 51°54' E 004°28'0 0.0
2016-Dec-05 18:33N 51°54' E 004°28'0 0.0
2016-Dec-05 17:33N 51°54' E 004°28'0 0.0
2016-Dec-05 16:33N 51°54' E 004°28'0 0.0
2016-Dec-05 15:34N 51°54' E 004°28'0 0.0
2016-Dec-05 14:33N 51°54' E 004°28'0 0.0
2016-Dec-05 13:33N 51°54' E 004°28'0 0.0
2016-Dec-05 12:33N 51°54' E 004°28'0 0.0
2016-Dec-05 11:33N 51°54' E 004°28'0 0.0
2016-Dec-05 10:33N 51°54' E 004°28'0 0.0
2016-Dec-05 09:33N 51°54' E 004°28'0 0.0
2016-Dec-05 08:33N 51°54' E 004°28'3 2.8
2016-Dec-05 07:33N 51°54' E 004°24'9 9.2
2016-Dec-05 06:33N 51°57' E 004°10'9 9.4
2016-Dec-05 05:33N 52°01' E 003°55'6 6.4
2016-Dec-05 04:33N 52°05' E 003°48'4 4.3
2016-Dec-05 03:33N 52°10' E 003°46'6 5.9
2016-Dec-05 02:33N 52°15' E 003°47'7 6.7
2016-Dec-05 01:33N 52°22' E 003°48'10 7.0
2016-Dec-05 00:08N 52°32' E 003°51'4 7.1
2016-Dec-04 23:33N 52°36' E 003°53'7 7.2
2016-Dec-04 22:33N 52°43' E 003°55'7 6.8
2016-Dec-04 21:33N 52°50' E 003°58'6 6.0
2016-Dec-04 20:33N 52°55' E 003°60'6 6.0
2016-Dec-04 19:33N 52°60' E 004°06'6 6.2
2016-Dec-04 18:33N 53°04' E 004°14'6 6.4
2016-Dec-04 17:33N 53°08' E 004°22'7 6.9
2016-Dec-04 16:33N 53°14' E 004°28'30 7.5
2016-Dec-04 12:32N 53°34' E 005°05'8 8.1
2016-Dec-04 11:33N 53°37' E 005°18'19 7.9
2016-Dec-04 09:08N 53°43' E 005°49'84 9.6
2016-Dec-04 00:23N 54°01' E 008°08'7 8.4
2016-Dec-03 23:33N 54°00' E 008°19'8 7.7
2016-Dec-03 22:33N 53°58' E 008°32'10 9.9
2016-Dec-03 21:33N 53°52' E 008°45'1212.1
2016-Dec-03 20:33N 53°53' E 009°05'3 3.2
2016-Dec-03 19:33N 53°54' E 009°10'7 7.3
2016-Dec-03 18:33N 53°60' E 009°17'9 8.4
2016-Dec-03 17:30N 54°08' E 009°21'8 8.4
2016-Dec-03 16:33N 54°12' E 009°33'8 7.6
2016-Dec-03 15:33N 54°18' E 009°41'6 6.4
2016-Dec-03 14:33N 54°22' E 009°50'8 7.6
2016-Dec-03 13:33N 54°22' E 010°03'3 3.5
2016-Dec-03 12:33N 54°22' E 010°09'1 1.1
2016-Dec-03 11:33N 54°22' E 010°10'5 4.8
2016-Dec-03 10:33N 54°27' E 010°14'10 9.8
2016-Dec-03 09:33N 54°32' E 010°27'1010.1
2016-Dec-03 08:33N 54°35' E 010°44'10 9.9
2016-Dec-03 07:33N 54°36' E 011°01'9 9.3
2016-Dec-03 06:33N 54°34' E 011°17'1010.2
2016-Dec-03 05:32N 54°30' E 011°34'1110.2
2016-Dec-03 04:25N 54°27' E 011°53'11 9.6
2016-Dec-03 03:17N 54°29' E 012°11'83 9.4
2016-Dec-02 18:25N 54°39' E 014°33'8 9.4
2016-Dec-02 17:33N 54°40' E 014°47'14 9.2
2016-Dec-02 16:04N 54°42' E 015°10'113 8.4
2016-Dec-02 02:32N 54°57' E 018°25'9 9.4
2016-Dec-02 01:33N 54°55' E 018°41'10 9.9
2016-Dec-02 00:33N 54°52' E 018°58'1010.0
2016-Dec-01 23:33N 54°49' E 019°14'  

Dump ship's entire track history